createdAt,value
2023-05-17T00:00:15.683Z,19.03
2023-05-17T00:02:42.218Z,13.73
2023-05-17T00:05:11.533Z,15.00
2023-05-17T00:07:38.137Z,11.27
2023-05-17T00:10:04.918Z,13.82
2023-05-17T00:12:32.527Z,14.73
2023-05-17T00:14:59.093Z,15.02
2023-05-17T00:17:28.867Z,18.08
2023-05-17T00:19:55.568Z,15.63
2023-05-17T00:22:22.048Z,17.67
2023-05-17T00:24:49.328Z,18.20
2023-05-17T00:27:15.770Z,16.67
2023-05-17T00:29:42.300Z,21.67
2023-05-17T00:32:08.864Z,18.00
2023-05-17T00:34:36.581Z,15.03
2023-05-17T00:37:03.252Z,16.02
2023-05-17T00:39:29.919Z,15.37
2023-05-17T00:41:56.378Z,13.03
2023-05-17T00:44:23.538Z,12.77
2023-05-17T00:46:51.126Z,15.57
2023-05-17T00:49:19.507Z,12.68
2023-05-17T00:51:51.148Z,13.60
2023-05-17T00:54:18.582Z,17.58
2023-05-17T00:56:45.439Z,18.50
2023-05-17T00:59:13.541Z,17.45
2023-05-17T01:01:43.499Z,17.67
2023-05-17T01:04:10.719Z,15.38
2023-05-17T01:06:39.490Z,23.40
2023-05-17T01:09:07.513Z,13.93
2023-05-17T01:12:24.973Z,15.10
2023-05-17T01:15:19.678Z,18.83
2023-05-17T01:18:18.925Z,15.25
2023-05-17T01:20:47.500Z,18.00
2023-05-17T01:24:05.413Z,19.30
2023-05-17T01:26:44.341Z,20.17
2023-05-17T01:29:16.248Z,20.25
2023-05-17T01:31:46.939Z,18.38
2023-05-17T01:34:13.470Z,22.55
2023-05-17T01:36:42.479Z,15.93
2023-05-17T01:39:09.408Z,23.55
2023-05-17T01:41:42.221Z,17.20
2023-05-17T01:44:38.128Z,16.52
2023-05-17T01:47:29.564Z,29.77
2023-05-17T01:50:00.471Z,24.05
2023-05-17T01:52:26.999Z,17.45
2023-05-17T01:55:19.888Z,16.63
2023-05-17T01:57:52.759Z,16.65
2023-05-17T02:00:19.864Z,17.25
2023-05-17T02:02:46.682Z,26.05
2023-05-17T02:05:14.788Z,19.00
2023-05-17T02:07:43.509Z,14.35
2023-05-17T02:10:11.389Z,21.52
2023-05-17T02:12:38.029Z,16.08
2023-05-17T02:15:08.306Z,20.38
2023-05-17T02:17:35.696Z,17.30
2023-05-17T02:22:29.317Z,14.80
2023-05-17T02:24:56.721Z,18.30
2023-05-17T02:27:23.380Z,19.23
2023-05-17T02:29:54.724Z,13.73
2023-05-17T02:32:21.610Z,18.85
2023-05-17T02:34:54.202Z,17.63
2023-05-17T02:37:21.041Z,24.58
2023-05-17T02:39:47.737Z,15.50
2023-05-17T02:42:14.935Z,17.27
2023-05-17T02:44:54.890Z,19.33
2023-05-17T02:47:22.521Z,19.90
2023-05-17T02:52:20.662Z,19.92
2023-05-17T02:54:48.099Z,15.65
2023-05-17T02:57:15.915Z,24.42
2023-05-17T02:59:50.543Z,23.42
2023-05-17T03:02:20.985Z,17.35
2023-05-17T03:04:47.895Z,23.80
2023-05-17T03:07:16.126Z,18.52
2023-05-17T03:09:44.204Z,20.50
2023-05-17T03:12:11.966Z,21.48
2023-05-17T03:14:41.323Z,18.63
2023-05-17T03:17:08.054Z,14.20
2023-05-17T03:19:35.054Z,23.55
2023-05-17T03:22:05.423Z,16.88
2023-05-17T03:26:58.717Z,15.98
2023-05-17T03:29:25.368Z,27.30
2023-05-17T03:31:51.918Z,19.27
2023-05-17T03:34:18.669Z,16.07
2023-05-17T03:36:45.296Z,15.75
2023-05-17T03:39:12.185Z,16.67
2023-05-17T03:41:38.884Z,16.33
2023-05-17T03:44:05.838Z,17.30
2023-05-17T03:46:32.457Z,20.05
2023-05-17T03:48:59.218Z,20.77
2023-05-17T03:51:25.921Z,17.80
2023-05-17T03:54:01.313Z,12.27
2023-05-17T03:56:28.145Z,23.90
2023-05-17T03:58:55.626Z,20.10
2023-05-17T04:03:51.198Z,15.93
2023-05-17T04:06:18.101Z,14.18
2023-05-17T04:08:44.740Z,16.13
2023-05-17T04:11:13.447Z,14.53
2023-05-17T04:13:42.491Z,16.77
2023-05-17T04:16:12.588Z,13.73
2023-05-17T04:18:41.324Z,19.05
2023-05-17T04:21:08.282Z,16.05
2023-05-17T04:23:38.211Z,23.85
2023-05-17T04:26:06.138Z,19.35
2023-05-17T04:28:35.168Z,22.98
2023-05-17T04:31:08.196Z,21.48
2023-05-17T04:33:36.950Z,20.48
2023-05-17T04:36:04.025Z,21.95
2023-05-17T04:38:30.647Z,17.52
2023-05-17T04:41:05.105Z,21.70
2023-05-17T04:43:32.741Z,14.43
2023-05-17T04:46:00.300Z,16.23
2023-05-17T04:50:54.523Z,19.42
2023-05-17T04:53:24.187Z,27.83
2023-05-17T04:55:50.868Z,20.73
2023-05-17T04:58:18.583Z,30.52
2023-05-17T05:03:12.208Z,16.98
2023-05-17T05:05:38.777Z,21.87
2023-05-17T05:08:05.359Z,14.27
2023-05-17T05:10:31.934Z,24.10
2023-05-17T05:12:58.544Z,20.70
2023-05-17T05:15:25.072Z,20.70
2023-05-17T05:17:51.827Z,15.48
2023-05-17T05:20:19.766Z,17.75
2023-05-17T05:22:46.295Z,13.15
2023-05-17T05:25:13.871Z,21.73
2023-05-17T05:27:51.446Z,17.75
2023-05-17T05:30:22.149Z,15.60
2023-05-17T05:32:50.192Z,18.80
2023-05-17T05:35:19.000Z,18.83
2023-05-17T05:37:45.805Z,18.52
2023-05-17T05:40:12.937Z,22.10
2023-05-17T05:42:40.679Z,19.67
2023-05-17T05:45:08.588Z,15.93
2023-05-17T05:47:35.226Z,15.77
2023-05-17T05:50:01.823Z,12.07
2023-05-17T05:52:28.416Z,11.23
2023-05-17T05:54:54.939Z,17.73
2023-05-17T05:57:21.704Z,16.90
2023-05-17T05:59:48.254Z,18.30
2023-05-17T06:02:15.073Z,11.70
2023-05-17T06:04:45.547Z,23.90
2023-05-17T06:07:15.756Z,14.18
2023-05-17T06:09:42.353Z,15.25
2023-05-17T06:12:09.106Z,9.43
2023-05-17T06:14:37.521Z,14.68
2023-05-17T06:17:04.395Z,11.23
2023-05-17T06:19:31.024Z,11.80
2023-05-17T06:21:58.840Z,11.75
2023-05-17T06:24:25.416Z,19.47
2023-05-17T06:26:53.013Z,10.03
2023-05-17T06:29:19.526Z,12.48
2023-05-17T06:31:46.164Z,12.05
2023-05-17T06:34:13.788Z,12.70
2023-05-17T06:36:40.939Z,9.98
2023-05-17T06:39:11.152Z,12.30
2023-05-17T06:41:38.046Z,11.30
2023-05-17T06:44:04.868Z,12.85
2023-05-17T06:46:31.319Z,9.52
2023-05-17T06:48:58.161Z,10.60
2023-05-17T06:51:25.181Z,10.57
2023-05-17T06:53:52.667Z,10.85
2023-05-17T06:56:19.241Z,13.35
2023-05-17T06:58:46.034Z,11.82
2023-05-17T07:01:16.993Z,9.53
2023-05-17T07:03:43.588Z,13.20
2023-05-17T07:06:10.264Z,6.18
2023-05-17T07:08:36.792Z,11.77
2023-05-17T07:11:05.486Z,15.70
2023-05-17T07:13:32.061Z,7.65
2023-05-17T07:15:58.953Z,13.70
2023-05-17T07:18:25.607Z,9.02
2023-05-17T07:20:52.119Z,14.88
2023-05-17T07:23:21.569Z,12.77
2023-05-17T07:25:50.350Z,9.90
2023-05-17T07:28:17.953Z,12.35
2023-05-17T07:30:50.788Z,8.80
2023-05-17T07:33:17.317Z,11.48
2023-05-17T07:35:45.147Z,12.40
2023-05-17T07:38:11.773Z,6.75
2023-05-17T07:40:38.338Z,7.20
2023-05-17T07:43:04.989Z,4.97
2023-05-17T07:45:32.738Z,7.00
2023-05-17T07:47:59.296Z,7.47
2023-05-17T07:50:29.198Z,12.17
2023-05-17T07:52:55.634Z,12.93
2023-05-17T07:55:25.545Z,12.63
2023-05-17T07:57:52.541Z,7.22
2023-05-17T08:00:19.689Z,6.85
2023-05-17T08:02:46.619Z,9.07
2023-05-17T08:05:13.329Z,6.68
2023-05-17T08:07:39.901Z,12.63
2023-05-17T08:10:12.316Z,8.53
2023-05-17T08:12:39.897Z,7.10
2023-05-17T08:15:06.975Z,11.35
2023-05-17T08:17:34.720Z,10.05
2023-05-17T08:20:02.463Z,8.68
2023-05-17T08:22:29.268Z,10.20
2023-05-17T08:24:55.939Z,11.60
2023-05-17T08:27:22.559Z,10.82
2023-05-17T08:29:49.125Z,5.10
2023-05-17T08:32:15.786Z,7.35
2023-05-17T08:34:43.053Z,11.95
2023-05-17T08:37:10.375Z,6.10
2023-05-17T08:39:37.404Z,7.15
2023-05-17T08:42:07.926Z,7.93
2023-05-17T08:44:39.686Z,11.15
2023-05-17T08:47:09.351Z,8.85
2023-05-17T08:49:38.120Z,9.50
2023-05-17T08:52:10.810Z,9.23
2023-05-17T08:54:38.714Z,9.65
2023-05-17T08:57:07.488Z,9.00
2023-05-17T08:59:35.378Z,5.57
2023-05-17T09:02:02.449Z,11.55
2023-05-17T09:04:30.658Z,11.70
2023-05-17T09:06:59.938Z,7.72
2023-05-17T09:09:27.057Z,6.15
2023-05-17T09:11:53.613Z,4.93
2023-05-17T09:14:23.924Z,8.20
2023-05-17T09:16:59.992Z,8.02
2023-05-17T09:19:28.424Z,8.85
2023-05-17T09:21:56.132Z,6.28
2023-05-17T09:24:30.375Z,9.30
2023-05-17T09:27:04.400Z,7.22
2023-05-17T09:29:35.079Z,11.65
2023-05-17T09:32:21.658Z,10.40
2023-05-17T09:34:56.416Z,7.57
2023-05-17T09:37:26.434Z,6.93
2023-05-17T09:39:55.145Z,12.40
2023-05-17T09:42:28.233Z,8.23
2023-05-17T09:44:59.042Z,7.05
2023-05-17T09:47:34.028Z,8.70
2023-05-17T09:50:03.903Z,8.38
2023-05-17T09:52:32.012Z,11.30
2023-05-17T09:55:00.425Z,9.75
2023-05-17T09:57:36.886Z,8.88
2023-05-17T10:00:12.007Z,7.50
2023-05-17T10:02:46.587Z,9.30
2023-05-17T10:05:14.873Z,12.82
2023-05-17T10:07:42.117Z,10.32
2023-05-17T10:10:10.742Z,7.00
2023-05-17T10:12:40.660Z,8.60
2023-05-17T10:15:09.821Z,11.35
2023-05-17T10:17:39.647Z,9.55
2023-05-17T10:20:12.159Z,13.02
2023-05-17T10:22:44.004Z,10.90
2023-05-17T10:25:27.521Z,14.20
2023-05-17T10:27:57.239Z,6.22
2023-05-17T10:30:29.606Z,8.40
2023-05-17T10:32:56.867Z,7.43
2023-05-17T10:35:24.519Z,13.57
2023-05-17T10:37:51.273Z,12.50
2023-05-17T10:40:17.956Z,8.68
2023-05-17T10:42:55.575Z,12.25
2023-05-17T10:45:25.283Z,11.50
2023-05-17T10:47:53.124Z,13.50
2023-05-17T10:50:29.524Z,8.77
2023-05-17T10:52:59.772Z,11.50
2023-05-17T10:55:39.243Z,6.63
2023-05-17T10:58:22.499Z,7.07
2023-05-17T11:00:56.254Z,7.20
2023-05-17T11:03:32.171Z,9.77
2023-05-17T11:06:24.470Z,7.32
2023-05-17T11:09:32.236Z,11.20
2023-05-17T11:12:12.025Z,10.23
2023-05-17T11:14:55.078Z,8.10
2023-05-17T11:17:26.765Z,10.00
2023-05-17T11:20:02.095Z,11.80
2023-05-17T11:22:37.631Z,10.02
2023-05-17T11:25:32.943Z,9.02
2023-05-17T11:27:59.891Z,7.85
2023-05-17T11:30:31.797Z,8.20
2023-05-17T11:32:58.544Z,9.32
2023-05-17T11:35:28.618Z,12.98
2023-05-17T11:38:14.058Z,8.25
2023-05-17T11:40:43.005Z,8.18
2023-05-17T11:43:33.982Z,9.55
2023-05-17T11:46:01.727Z,11.43
2023-05-17T11:48:31.684Z,7.22
2023-05-17T11:51:02.244Z,10.90
2023-05-17T11:53:31.053Z,11.27
2023-05-17T11:56:02.285Z,8.95
2023-05-17T11:58:30.074Z,12.23
2023-05-17T12:00:59.108Z,12.45
2023-05-17T12:03:29.099Z,10.52
2023-05-17T12:06:08.208Z,11.43
2023-05-17T12:08:37.923Z,7.55
2023-05-17T12:11:06.852Z,11.73
2023-05-17T12:13:37.278Z,16.23
2023-05-17T12:16:14.525Z,9.80
2023-05-17T12:18:49.624Z,12.80
2023-05-17T12:21:18.309Z,11.57
2023-05-17T12:23:50.972Z,14.68
2023-05-17T12:26:22.765Z,7.90
2023-05-17T12:29:00.321Z,6.65
2023-05-17T12:34:04.707Z,13.60
2023-05-17T12:36:33.629Z,13.45
2023-05-17T12:39:01.818Z,7.05
2023-05-17T12:41:29.689Z,13.63
2023-05-17T12:46:39.657Z,11.23
2023-05-17T12:49:12.796Z,7.05
2023-05-17T12:51:44.357Z,9.98
2023-05-17T12:54:12.529Z,10.85
2023-05-17T12:56:42.731Z,11.80
2023-05-17T12:59:17.305Z,16.13
2023-05-17T13:01:47.621Z,6.35
2023-05-17T13:04:15.809Z,10.18
2023-05-17T13:06:49.853Z,7.82
2023-05-17T13:09:19.172Z,7.18
2023-05-17T13:11:56.515Z,10.15
2023-05-17T13:14:46.563Z,9.60
2023-05-17T13:17:32.869Z,9.63
2023-05-17T13:20:02.264Z,12.00
2023-05-17T13:22:29.294Z,8.80
2023-05-17T13:24:59.942Z,12.30
2023-05-17T13:27:26.482Z,11.55
2023-05-17T13:32:21.436Z,10.35
2023-05-17T13:34:47.958Z,10.68
2023-05-17T13:39:43.256Z,8.02
2023-05-17T13:42:10.914Z,11.73
2023-05-17T13:44:40.657Z,9.88
2023-05-17T13:47:07.700Z,7.38
2023-05-17T13:49:34.476Z,10.80
2023-05-17T13:52:01.095Z,10.05
2023-05-17T13:54:27.824Z,11.18
2023-05-17T13:56:55.692Z,14.50
2023-05-17T13:59:22.696Z,9.63
2023-05-17T14:01:49.612Z,11.27
2023-05-17T14:04:16.430Z,11.70
2023-05-17T14:06:48.709Z,11.07
2023-05-17T14:09:15.857Z,10.55
2023-05-17T14:11:43.864Z,6.72
2023-05-17T14:14:10.338Z,10.15
2023-05-17T14:19:04.977Z,10.07
2023-05-17T14:21:31.850Z,9.50
2023-05-17T14:23:58.518Z,9.02
2023-05-17T14:26:36.794Z,9.10
2023-05-17T14:29:14.411Z,13.00
2023-05-17T14:31:41.568Z,11.77
2023-05-17T14:34:08.244Z,11.70
2023-05-17T14:39:03.952Z,10.63
2023-05-17T14:41:30.648Z,10.05
2023-05-17T14:43:57.129Z,9.77
2023-05-17T14:46:23.739Z,9.77
2023-05-17T14:48:52.516Z,8.38
2023-05-17T14:51:19.468Z,11.38
2023-05-17T14:53:47.434Z,9.55
2023-05-17T14:56:15.321Z,8.38
2023-05-17T14:58:42.323Z,12.88
2023-05-17T15:01:09.214Z,9.73
2023-05-17T15:03:36.553Z,8.43
2023-05-17T15:06:05.699Z,12.43
2023-05-17T15:08:34.823Z,8.90
2023-05-17T15:11:02.045Z,14.80
2023-05-17T15:13:31.577Z,11.23
2023-05-17T15:15:58.744Z,8.75
2023-05-17T15:18:27.790Z,10.60
2023-05-17T15:20:57.427Z,14.82
2023-05-17T15:23:29.081Z,7.03
2023-05-17T15:25:55.921Z,9.80
2023-05-17T15:28:23.783Z,5.97
2023-05-17T15:31:00.655Z,10.02
2023-05-17T15:33:30.811Z,8.32
2023-05-17T15:35:57.463Z,16.83
2023-05-17T15:38:24.272Z,13.75
2023-05-17T15:41:07.463Z,13.10
2023-05-17T15:43:35.268Z,8.15
2023-05-17T15:46:01.940Z,8.30
2023-05-17T15:48:31.557Z,7.15
2023-05-17T15:50:58.563Z,10.07
2023-05-17T15:53:26.006Z,9.02
2023-05-17T15:55:53.783Z,10.13
2023-05-17T15:58:21.788Z,8.10
2023-05-17T16:00:48.681Z,10.85
2023-05-17T16:03:15.848Z,9.90
2023-05-17T16:05:42.915Z,8.02
2023-05-17T16:08:15.155Z,5.97
2023-05-17T16:10:41.723Z,9.77
2023-05-17T16:15:35.822Z,10.45
2023-05-17T16:18:04.768Z,11.13
2023-05-17T16:20:39.404Z,7.63
2023-05-17T16:23:06.271Z,7.32
2023-05-17T16:25:34.409Z,9.52
2023-05-17T16:28:00.948Z,8.13
2023-05-17T16:30:27.638Z,9.70
2023-05-17T16:32:55.448Z,8.82
2023-05-17T16:35:22.803Z,9.93
2023-05-17T16:37:50.340Z,8.90
2023-05-17T16:40:17.114Z,9.73
2023-05-17T16:42:44.682Z,10.25
2023-05-17T16:45:17.622Z,7.72
2023-05-17T16:47:45.522Z,9.07
2023-05-17T16:50:13.574Z,9.88
2023-05-17T16:52:40.207Z,12.82
2023-05-17T16:55:09.580Z,12.07
2023-05-17T16:57:39.490Z,10.02
2023-05-17T17:00:06.855Z,11.32
2023-05-17T17:02:46.800Z,12.13
2023-05-17T17:05:13.503Z,12.60
2023-05-17T17:07:40.163Z,9.20
2023-05-17T17:10:07.341Z,8.75
2023-05-17T17:12:34.092Z,8.93
2023-05-17T17:15:06.275Z,11.68
2023-05-17T17:17:34.252Z,9.15
2023-05-17T17:20:00.786Z,7.15
2023-05-17T17:22:34.685Z,10.15
2023-05-17T17:25:04.065Z,9.20
2023-05-17T17:27:30.744Z,6.07
2023-05-17T17:30:00.616Z,9.38
2023-05-17T17:32:30.884Z,9.82
2023-05-17T17:34:57.535Z,6.85
2023-05-17T17:37:24.219Z,9.38
2023-05-17T17:39:51.083Z,9.52
2023-05-17T17:42:17.672Z,9.75
2023-05-17T17:44:45.499Z,13.60
2023-05-17T17:47:12.156Z,12.52
2023-05-17T17:49:42.218Z,10.95
2023-05-17T17:52:09.817Z,7.65
2023-05-17T17:54:36.565Z,7.70
2023-05-17T17:57:03.429Z,7.25
2023-05-17T17:59:30.317Z,11.02
2023-05-17T18:01:59.817Z,9.15
2023-05-17T18:04:27.789Z,14.02
2023-05-17T18:06:55.008Z,8.40
2023-05-17T18:09:23.492Z,7.85
2023-05-17T18:11:57.169Z,12.15
2023-05-17T18:14:24.080Z,8.18
2023-05-17T18:16:51.823Z,10.27
2023-05-17T18:19:18.441Z,7.55
2023-05-17T18:21:45.137Z,10.43
2023-05-17T18:24:12.527Z,9.80
2023-05-17T18:26:45.539Z,16.10
2023-05-17T18:29:12.448Z,8.13
2023-05-17T18:31:40.430Z,9.88
2023-05-17T18:34:06.999Z,9.52
2023-05-17T18:36:33.632Z,9.93
2023-05-17T18:39:00.876Z,6.72
2023-05-17T18:41:27.811Z,12.32
2023-05-17T18:43:54.412Z,8.35
2023-05-17T18:46:21.587Z,8.40
2023-05-17T18:48:48.282Z,11.90
2023-05-17T18:51:15.804Z,11.32
2023-05-17T18:53:42.544Z,19.77
2023-05-17T18:56:12.520Z,22.65
2023-05-17T18:58:40.308Z,11.82
2023-05-17T19:01:08.283Z,11.52
2023-05-17T19:03:36.628Z,20.40
2023-05-17T19:06:03.348Z,10.00
2023-05-17T19:08:30.189Z,10.27
2023-05-17T19:10:56.991Z,9.27
2023-05-17T19:13:30.886Z,16.73
2023-05-17T19:15:57.456Z,11.48
2023-05-17T19:18:25.328Z,11.00
2023-05-17T19:20:52.197Z,11.85
2023-05-17T19:23:18.808Z,8.20
2023-05-17T19:25:45.590Z,13.93
2023-05-17T19:28:13.153Z,11.00
2023-05-17T19:30:39.775Z,7.05
2023-05-17T19:33:06.498Z,9.35
2023-05-17T19:35:33.140Z,10.18
2023-05-17T19:38:07.630Z,12.15
2023-05-17T19:40:35.670Z,7.45
2023-05-17T19:43:02.552Z,10.43
2023-05-17T19:45:30.182Z,10.65
2023-05-17T19:47:56.864Z,9.60
2023-05-17T19:50:24.481Z,7.53
2023-05-17T19:52:51.296Z,13.23
2023-05-17T19:55:22.136Z,7.57
2023-05-17T19:57:49.161Z,9.50
2023-05-17T20:00:16.405Z,10.32
2023-05-17T20:02:44.026Z,9.77
2023-05-17T20:05:14.907Z,10.88
2023-05-17T20:07:41.440Z,6.68
2023-05-17T20:10:08.413Z,11.13
2023-05-17T20:12:35.511Z,10.05
2023-05-17T20:15:02.476Z,12.18
2023-05-17T20:17:29.620Z,10.40
2023-05-17T20:19:56.507Z,9.27
2023-05-17T20:22:23.135Z,13.02
2023-05-17T20:24:50.001Z,9.33
2023-05-17T20:27:16.793Z,9.23
2023-05-17T20:29:43.433Z,15.97
2023-05-17T20:32:10.113Z,6.93
2023-05-17T20:34:36.874Z,10.90
2023-05-17T20:37:03.578Z,12.40
2023-05-17T20:39:31.043Z,11.65
2023-05-17T20:44:26.019Z,11.18
2023-05-17T20:46:54.900Z,9.20
2023-05-17T20:49:21.709Z,5.95
2023-05-17T20:51:48.395Z,9.15
2023-05-17T20:54:15.692Z,10.73
2023-05-17T20:56:45.496Z,10.23
2023-05-17T20:59:12.229Z,10.30
2023-05-17T21:01:40.082Z,11.73
2023-05-17T21:04:07.039Z,9.52
2023-05-17T21:06:34.540Z,9.18
2023-05-17T21:11:30.765Z,8.95
2023-05-17T21:13:59.865Z,8.25
2023-05-17T21:16:26.763Z,14.27
2023-05-17T21:18:53.885Z,9.63
2023-05-17T21:21:21.289Z,12.15
2023-05-17T21:23:48.553Z,13.75
2023-05-17T21:26:17.658Z,16.63
2023-05-17T21:28:45.006Z,11.55
2023-05-17T21:31:11.672Z,9.27
2023-05-17T21:33:38.487Z,6.97
2023-05-17T21:36:05.426Z,9.77
2023-05-17T21:38:32.127Z,9.43
2023-05-17T21:40:58.858Z,8.95
2023-05-17T21:43:25.607Z,9.10
2023-05-17T21:45:53.144Z,6.78
2023-05-17T21:50:46.796Z,9.85
2023-05-17T21:53:16.898Z,11.88
2023-05-17T21:56:00.812Z,8.80
2023-05-17T21:58:29.672Z,8.82
2023-05-17T22:00:57.352Z,15.00
2023-05-17T22:03:24.065Z,11.18
2023-05-17T22:05:51.248Z,8.90
2023-05-17T22:08:17.943Z,8.48
2023-05-17T22:10:44.653Z,9.25
2023-05-17T22:13:12.641Z,8.63
2023-05-17T22:15:41.639Z,9.40
2023-05-17T22:18:14.629Z,8.88
2023-05-17T22:20:41.294Z,12.13
2023-05-17T22:23:08.086Z,8.27
2023-05-17T22:25:35.144Z,10.45
2023-05-17T22:28:01.808Z,7.18
2023-05-17T22:30:28.585Z,12.32
2023-05-17T22:32:57.342Z,9.48
2023-05-17T22:35:24.648Z,5.57
2023-05-17T22:37:53.411Z,10.30
2023-05-17T22:40:22.982Z,9.65
2023-05-17T22:42:51.888Z,7.60
2023-05-17T22:45:18.556Z,13.32
2023-05-17T22:47:46.818Z,9.93
2023-05-17T22:50:15.633Z,14.45
2023-05-17T22:52:46.554Z,6.38
2023-05-17T22:55:14.463Z,6.65
2023-05-17T22:57:41.130Z,11.68
2023-05-17T23:00:09.434Z,8.13
2023-05-17T23:02:36.242Z,13.32
2023-05-17T23:05:03.338Z,12.73
2023-05-17T23:07:38.294Z,10.63
2023-05-17T23:10:09.340Z,11.13
2023-05-17T23:12:40.266Z,11.45
2023-05-17T23:15:07.946Z,10.35
2023-05-17T23:17:36.405Z,9.77
2023-05-17T23:20:13.041Z,13.73
2023-05-17T23:22:40.131Z,13.15
2023-05-17T23:25:07.026Z,8.02
2023-05-17T23:27:34.000Z,9.95
2023-05-17T23:30:01.137Z,12.45
2023-05-17T23:32:32.679Z,8.07
2023-05-17T23:35:03.772Z,11.52
2023-05-17T23:37:31.596Z,14.73
2023-05-17T23:39:58.830Z,14.43
2023-05-17T23:42:26.454Z,16.13
2023-05-17T23:47:19.700Z,8.68
2023-05-17T23:49:47.324Z,12.50
2023-05-17T23:52:13.866Z,10.10
2023-05-17T23:54:42.083Z,11.45
2023-05-17T23:57:09.081Z,11.18
2023-05-17T23:59:36.613Z,9.77
